sensor_id;sensor_type;location;lat;lon;timestamp;P1;durP1;ratioP1;P2;durP2;ratioP2
12816;SDS011;6473;51.552;6.716;2022-12-18T00:00:56;29.10;;;15.23;;
12816;SDS011;6473;51.552;6.716;2022-12-18T00:03:24;24.43;;;14.43;;
12816;SDS011;6473;51.552;6.716;2022-12-18T00:05:52;25.17;;;14.60;;
12816;SDS011;6473;51.552;6.716;2022-12-18T00:08:19;21.47;;;14.27;;
12816;SDS011;6473;51.552;6.716;2022-12-18T00:10:46;18.87;;;10.83;;
12816;SDS011;6473;51.552;6.716;2022-12-18T00:13:14;21.37;;;12.40;;
12816;SDS011;6473;51.552;6.716;2022-12-18T00:15:42;20.33;;;11.23;;
12816;SDS011;6473;51.552;6.716;2022-12-18T00:18:09;21.83;;;10.93;;
12816;SDS011;6473;51.552;6.716;2022-12-18T00:20:37;19.57;;;9.77;;
12816;SDS011;6473;51.552;6.716;2022-12-18T00:23:06;16.63;;;10.43;;
12816;SDS011;6473;51.552;6.716;2022-12-18T00:25:33;17.63;;;10.50;;
12816;SDS011;6473;51.552;6.716;2022-12-18T00:28:00;18.13;;;9.80;;
12816;SDS011;6473;51.552;6.716;2022-12-18T00:30:29;17.83;;;9.97;;
12816;SDS011;6473;51.552;6.716;2022-12-18T00:32:57;19.83;;;9.57;;
12816;SDS011;6473;51.552;6.716;2022-12-18T00:35:24;18.77;;;9.53;;
12816;SDS011;6473;51.552;6.716;2022-12-18T00:37:52;18.60;;;10.47;;
12816;SDS011;6473;51.552;6.716;2022-12-18T00:40:19;15.13;;;9.27;;
12816;SDS011;6473;51.552;6.716;2022-12-18T00:42:46;18.00;;;10.37;;
12816;SDS011;6473;51.552;6.716;2022-12-18T00:45:22;12.60;;;8.37;;
12816;SDS011;6473;51.552;6.716;2022-12-18T00:47:52;14.40;;;8.40;;
12816;SDS011;6473;51.552;6.716;2022-12-18T00:50:19;17.77;;;10.00;;
12816;SDS011;6473;51.552;6.716;2022-12-18T00:52:47;17.47;;;10.10;;
12816;SDS011;6473;51.552;6.716;2022-12-18T00:55:15;19.77;;;10.70;;
12816;SDS011;6473;51.552;6.716;2022-12-18T00:57:42;17.83;;;10.57;;
12816;SDS011;6473;51.552;6.716;2022-12-18T01:00:11;17.80;;;10.67;;
12816;SDS011;6473;51.552;6.716;2022-12-18T01:02:41;17.80;;;10.50;;
12816;SDS011;6473;51.552;6.716;2022-12-18T01:05:10;17.60;;;10.73;;
12816;SDS011;6473;51.552;6.716;2022-12-18T01:07:38;14.63;;;8.50;;
12816;SDS011;6473;51.552;6.716;2022-12-18T01:10:06;15.57;;;8.43;;
12816;SDS011;6473;51.552;6.716;2022-12-18T01:12:35;16.80;;;9.70;;
12816;SDS011;6473;51.552;6.716;2022-12-18T01:15:02;16.57;;;9.33;;
12816;SDS011;6473;51.552;6.716;2022-12-18T01:17:31;16.20;;;10.00;;
12816;SDS011;6473;51.552;6.716;2022-12-18T01:19:59;14.77;;;8.17;;
12816;SDS011;6473;51.552;6.716;2022-12-18T01:22:28;13.73;;;7.77;;
12816;SDS011;6473;51.552;6.716;2022-12-18T01:24:54;18.00;;;10.70;;
12816;SDS011;6473;51.552;6.716;2022-12-18T01:27:21;19.63;;;10.37;;
12816;SDS011;6473;51.552;6.716;2022-12-18T01:29:50;18.63;;;12.00;;
12816;SDS011;6473;51.552;6.716;2022-12-18T01:32:18;19.20;;;11.63;;
12816;SDS011;6473;51.552;6.716;2022-12-18T01:34:45;18.60;;;11.70;;
12816;SDS011;6473;51.552;6.716;2022-12-18T01:37:12;20.10;;;11.87;;
12816;SDS011;6473;51.552;6.716;2022-12-18T01:39:41;19.07;;;11.13;;
12816;SDS011;6473;51.552;6.716;2022-12-18T01:42:10;20.33;;;10.80;;
12816;SDS011;6473;51.552;6.716;2022-12-18T01:47:32;17.67;;;10.83;;
12816;SDS011;6473;51.552;6.716;2022-12-18T01:50:04;17.33;;;10.27;;
12816;SDS011;6473;51.552;6.716;2022-12-18T01:52:34;16.30;;;11.43;;
12816;SDS011;6473;51.552;6.716;2022-12-18T01:55:03;18.93;;;10.37;;
12816;SDS011;6473;51.552;6.716;2022-12-18T01:57:32;18.03;;;10.47;;
12816;SDS011;6473;51.552;6.716;2022-12-18T02:00:02;19.40;;;10.83;;
12816;SDS011;6473;51.552;6.716;2022-12-18T02:02:38;18.47;;;11.40;;
12816;SDS011;6473;51.552;6.716;2022-12-18T02:05:06;17.47;;;10.60;;
12816;SDS011;6473;51.552;6.716;2022-12-18T02:07:37;17.90;;;10.57;;
12816;SDS011;6473;51.552;6.716;2022-12-18T02:10:13;17.67;;;10.40;;
12816;SDS011;6473;51.552;6.716;2022-12-18T02:12:47;20.30;;;11.03;;
12816;SDS011;6473;51.552;6.716;2022-12-18T02:15:20;18.53;;;12.23;;
12816;SDS011;6473;51.552;6.716;2022-12-18T02:17:54;16.13;;;11.03;;
12816;SDS011;6473;51.552;6.716;2022-12-18T02:20:25;18.07;;;11.30;;
12816;SDS011;6473;51.552;6.716;2022-12-18T02:23:01;21.07;;;10.47;;
12816;SDS011;6473;51.552;6.716;2022-12-18T02:28:39;17.47;;;9.70;;
12816;SDS011;6473;51.552;6.716;2022-12-18T02:31:10;17.73;;;9.67;;
12816;SDS011;6473;51.552;6.716;2022-12-18T02:33:40;19.07;;;11.23;;
12816;SDS011;6473;51.552;6.716;2022-12-18T02:36:11;17.63;;;10.57;;
12816;SDS011;6473;51.552;6.716;2022-12-18T02:38:41;17.13;;;9.83;;
12816;SDS011;6473;51.552;6.716;2022-12-18T02:41:12;16.00;;;11.03;;
12816;SDS011;6473;51.552;6.716;2022-12-18T02:43:42;20.40;;;11.40;;
12816;SDS011;6473;51.552;6.716;2022-12-18T02:46:25;21.60;;;11.77;;
12816;SDS011;6473;51.552;6.716;2022-12-18T02:48:57;21.53;;;12.33;;
12816;SDS011;6473;51.552;6.716;2022-12-18T02:51:39;22.07;;;12.00;;
12816;SDS011;6473;51.552;6.716;2022-12-18T02:54:16;21.10;;;11.17;;
12816;SDS011;6473;51.552;6.716;2022-12-18T02:56:50;21.30;;;12.13;;
12816;SDS011;6473;51.552;6.716;2022-12-18T02:59:23;16.57;;;10.80;;
12816;SDS011;6473;51.552;6.716;2022-12-18T03:01:58;16.77;;;10.40;;
12816;SDS011;6473;51.552;6.716;2022-12-18T03:04:32;22.63;;;11.00;;
12816;SDS011;6473;51.552;6.716;2022-12-18T03:07:08;21.27;;;12.03;;
12816;SDS011;6473;51.552;6.716;2022-12-18T03:09:43;18.10;;;10.80;;
12816;SDS011;6473;51.552;6.716;2022-12-18T03:12:14;17.80;;;10.77;;
12816;SDS011;6473;51.552;6.716;2022-12-18T03:14:56;17.03;;;10.13;;
12816;SDS011;6473;51.552;6.716;2022-12-18T03:17:27;21.27;;;12.23;;
12816;SDS011;6473;51.552;6.716;2022-12-18T03:19:58;20.43;;;11.47;;
12816;SDS011;6473;51.552;6.716;2022-12-18T03:22:32;16.23;;;9.03;;
12816;SDS011;6473;51.552;6.716;2022-12-18T03:25:03;17.20;;;10.10;;
12816;SDS011;6473;51.552;6.716;2022-12-18T03:27:36;16.67;;;10.33;;
12816;SDS011;6473;51.552;6.716;2022-12-18T03:30:14;17.57;;;9.83;;
12816;SDS011;6473;51.552;6.716;2022-12-18T03:32:46;16.67;;;10.07;;
12816;SDS011;6473;51.552;6.716;2022-12-18T03:35:20;17.13;;;10.00;;
12816;SDS011;6473;51.552;6.716;2022-12-18T03:37:51;16.80;;;9.97;;
12816;SDS011;6473;51.552;6.716;2022-12-18T03:40:19;15.33;;;9.47;;
12816;SDS011;6473;51.552;6.716;2022-12-18T03:42:51;16.50;;;9.70;;
12816;SDS011;6473;51.552;6.716;2022-12-18T03:45:26;17.50;;;9.07;;
12816;SDS011;6473;51.552;6.716;2022-12-18T03:48:00;15.60;;;9.53;;
12816;SDS011;6473;51.552;6.716;2022-12-18T03:50:37;17.07;;;9.83;;
12816;SDS011;6473;51.552;6.716;2022-12-18T03:53:13;19.73;;;10.53;;
12816;SDS011;6473;51.552;6.716;2022-12-18T03:55:47;17.87;;;10.43;;
12816;SDS011;6473;51.552;6.716;2022-12-18T03:58:18;19.53;;;10.07;;
12816;SDS011;6473;51.552;6.716;2022-12-18T04:01:07;18.60;;;9.70;;
12816;SDS011;6473;51.552;6.716;2022-12-18T04:03:36;21.13;;;11.07;;
12816;SDS011;6473;51.552;6.716;2022-12-18T04:06:06;24.07;;;12.90;;
12816;SDS011;6473;51.552;6.716;2022-12-18T04:08:34;18.93;;;10.73;;
12816;SDS011;6473;51.552;6.716;2022-12-18T04:11:05;20.73;;;11.03;;
12816;SDS011;6473;51.552;6.716;2022-12-18T04:13:34;19.57;;;10.37;;
12816;SDS011;6473;51.552;6.716;2022-12-18T04:16:07;16.33;;;9.37;;
12816;SDS011;6473;51.552;6.716;2022-12-18T04:18:38;16.70;;;9.23;;
12816;SDS011;6473;51.552;6.716;2022-12-18T04:21:07;16.23;;;9.27;;
12816;SDS011;6473;51.552;6.716;2022-12-18T04:23:34;16.33;;;9.70;;
12816;SDS011;6473;51.552;6.716;2022-12-18T04:26:01;15.23;;;8.77;;
12816;SDS011;6473;51.552;6.716;2022-12-18T04:28:43;16.50;;;9.97;;
12816;SDS011;6473;51.552;6.716;2022-12-18T04:31:12;15.50;;;9.37;;
12816;SDS011;6473;51.552;6.716;2022-12-18T04:33:39;14.60;;;9.00;;
12816;SDS011;6473;51.552;6.716;2022-12-18T04:36:07;14.30;;;9.10;;
12816;SDS011;6473;51.552;6.716;2022-12-18T04:38:34;19.07;;;10.53;;
12816;SDS011;6473;51.552;6.716;2022-12-18T04:41:06;17.80;;;11.07;;
12816;SDS011;6473;51.552;6.716;2022-12-18T04:43:34;17.67;;;10.50;;
12816;SDS011;6473;51.552;6.716;2022-12-18T04:46:02;20.60;;;11.93;;
12816;SDS011;6473;51.552;6.716;2022-12-18T04:48:31;23.03;;;12.00;;
12816;SDS011;6473;51.552;6.716;2022-12-18T04:50:58;21.57;;;11.17;;
12816;SDS011;6473;51.552;6.716;2022-12-18T04:53:25;22.20;;;12.27;;
12816;SDS011;6473;51.552;6.716;2022-12-18T04:56:01;19.57;;;11.80;;
12816;SDS011;6473;51.552;6.716;2022-12-18T04:58:29;20.43;;;11.27;;
12816;SDS011;6473;51.552;6.716;2022-12-18T05:00:57;20.50;;;11.80;;
12816;SDS011;6473;51.552;6.716;2022-12-18T05:03:24;18.90;;;11.40;;
12816;SDS011;6473;51.552;6.716;2022-12-18T05:05:52;17.47;;;9.80;;
12816;SDS011;6473;51.552;6.716;2022-12-18T05:08:19;18.87;;;10.90;;
12816;SDS011;6473;51.552;6.716;2022-12-18T05:10:47;16.47;;;10.40;;
12816;SDS011;6473;51.552;6.716;2022-12-18T05:13:14;20.83;;;11.03;;
12816;SDS011;6473;51.552;6.716;2022-12-18T05:15:41;22.23;;;10.83;;
12816;SDS011;6473;51.552;6.716;2022-12-18T05:18:09;20.33;;;11.27;;
12816;SDS011;6473;51.552;6.716;2022-12-18T05:20:36;19.20;;;10.67;;
12816;SDS011;6473;51.552;6.716;2022-12-18T05:23:04;20.37;;;10.47;;
12816;SDS011;6473;51.552;6.716;2022-12-18T05:25:31;21.70;;;11.83;;
12816;SDS011;6473;51.552;6.716;2022-12-18T05:27:58;20.97;;;12.00;;
12816;SDS011;6473;51.552;6.716;2022-12-18T05:30:25;23.47;;;11.23;;
12816;SDS011;6473;51.552;6.716;2022-12-18T05:32:52;19.50;;;11.10;;
12816;SDS011;6473;51.552;6.716;2022-12-18T05:35:19;20.33;;;11.43;;
12816;SDS011;6473;51.552;6.716;2022-12-18T05:37:46;20.10;;;12.07;;
12816;SDS011;6473;51.552;6.716;2022-12-18T05:40:15;19.77;;;12.87;;
12816;SDS011;6473;51.552;6.716;2022-12-18T05:42:42;17.50;;;11.30;;
12816;SDS011;6473;51.552;6.716;2022-12-18T05:45:09;24.23;;;11.97;;
12816;SDS011;6473;51.552;6.716;2022-12-18T05:47:36;22.43;;;11.93;;
12816;SDS011;6473;51.552;6.716;2022-12-18T05:50:04;22.97;;;12.90;;
12816;SDS011;6473;51.552;6.716;2022-12-18T05:52:32;20.27;;;10.40;;
12816;SDS011;6473;51.552;6.716;2022-12-18T05:54:59;24.40;;;12.17;;
12816;SDS011;6473;51.552;6.716;2022-12-18T05:57:29;19.23;;;12.10;;
12816;SDS011;6473;51.552;6.716;2022-12-18T05:59:56;17.50;;;10.47;;
12816;SDS011;6473;51.552;6.716;2022-12-18T06:02:23;20.73;;;11.30;;
12816;SDS011;6473;51.552;6.716;2022-12-18T06:04:50;19.63;;;10.97;;
12816;SDS011;6473;51.552;6.716;2022-12-18T06:07:17;20.37;;;12.20;;
12816;SDS011;6473;51.552;6.716;2022-12-18T06:09:44;17.07;;;10.50;;
12816;SDS011;6473;51.552;6.716;2022-12-18T06:12:11;21.93;;;11.70;;
12816;SDS011;6473;51.552;6.716;2022-12-18T06:14:40;17.97;;;11.67;;
12816;SDS011;6473;51.552;6.716;2022-12-18T06:17:07;20.67;;;11.83;;
12816;SDS011;6473;51.552;6.716;2022-12-18T06:19:34;16.77;;;11.33;;
12816;SDS011;6473;51.552;6.716;2022-12-18T06:22:01;20.27;;;10.70;;
12816;SDS011;6473;51.552;6.716;2022-12-18T06:24:28;18.57;;;10.90;;
12816;SDS011;6473;51.552;6.716;2022-12-18T06:26:55;20.20;;;10.83;;
12816;SDS011;6473;51.552;6.716;2022-12-18T06:29:22;19.23;;;10.57;;
12816;SDS011;6473;51.552;6.716;2022-12-18T06:31:51;22.97;;;10.97;;
12816;SDS011;6473;51.552;6.716;2022-12-18T06:34:18;22.43;;;11.83;;
12816;SDS011;6473;51.552;6.716;2022-12-18T06:36:44;16.47;;;10.77;;
12816;SDS011;6473;51.552;6.716;2022-12-18T06:39:11;23.20;;;11.27;;
12816;SDS011;6473;51.552;6.716;2022-12-18T06:41:39;20.17;;;10.97;;
12816;SDS011;6473;51.552;6.716;2022-12-18T06:44:06;18.30;;;11.10;;
12816;SDS011;6473;51.552;6.716;2022-12-18T06:46:33;20.83;;;10.50;;
12816;SDS011;6473;51.552;6.716;2022-12-18T06:49:01;19.20;;;12.47;;
12816;SDS011;6473;51.552;6.716;2022-12-18T06:51:28;24.10;;;14.07;;
12816;SDS011;6473;51.552;6.716;2022-12-18T06:53:56;21.53;;;12.00;;
12816;SDS011;6473;51.552;6.716;2022-12-18T06:56:23;22.30;;;13.17;;
12816;SDS011;6473;51.552;6.716;2022-12-18T06:58:50;24.00;;;12.17;;
12816;SDS011;6473;51.552;6.716;2022-12-18T07:01:17;20.83;;;12.57;;
12816;SDS011;6473;51.552;6.716;2022-12-18T07:03:44;24.93;;;12.83;;
12816;SDS011;6473;51.552;6.716;2022-12-18T07:06:16;22.83;;;12.80;;
12816;SDS011;6473;51.552;6.716;2022-12-18T07:08:44;22.77;;;11.87;;
12816;SDS011;6473;51.552;6.716;2022-12-18T07:11:12;20.30;;;11.87;;
12816;SDS011;6473;51.552;6.716;2022-12-18T07:13:39;19.73;;;12.13;;
12816;SDS011;6473;51.552;6.716;2022-12-18T07:16:07;22.00;;;11.63;;
12816;SDS011;6473;51.552;6.716;2022-12-18T07:18:35;18.23;;;12.23;;
12816;SDS011;6473;51.552;6.716;2022-12-18T07:21:03;24.97;;;11.07;;
12816;SDS011;6473;51.552;6.716;2022-12-18T07:23:33;22.23;;;12.53;;
12816;SDS011;6473;51.552;6.716;2022-12-18T07:26:01;19.30;;;12.00;;
12816;SDS011;6473;51.552;6.716;2022-12-18T07:28:28;18.93;;;11.90;;
12816;SDS011;6473;51.552;6.716;2022-12-18T07:30:56;19.40;;;11.83;;
12816;SDS011;6473;51.552;6.716;2022-12-18T07:33:24;20.37;;;11.37;;
12816;SDS011;6473;51.552;6.716;2022-12-18T07:35:51;18.83;;;11.43;;
12816;SDS011;6473;51.552;6.716;2022-12-18T07:38:18;19.73;;;11.60;;
12816;SDS011;6473;51.552;6.716;2022-12-18T07:40:47;18.80;;;11.53;;
12816;SDS011;6473;51.552;6.716;2022-12-18T07:43:14;22.50;;;12.17;;
12816;SDS011;6473;51.552;6.716;2022-12-18T07:45:41;20.70;;;11.87;;
12816;SDS011;6473;51.552;6.716;2022-12-18T07:48:08;20.13;;;11.47;;
12816;SDS011;6473;51.552;6.716;2022-12-18T07:50:36;17.53;;;11.00;;
12816;SDS011;6473;51.552;6.716;2022-12-18T07:53:04;22.17;;;10.77;;
12816;SDS011;6473;51.552;6.716;2022-12-18T07:55:35;19.20;;;11.77;;
12816;SDS011;6473;51.552;6.716;2022-12-18T07:58:04;18.93;;;11.47;;
12816;SDS011;6473;51.552;6.716;2022-12-18T08:00:34;17.07;;;11.23;;
12816;SDS011;6473;51.552;6.716;2022-12-18T08:03:01;22.13;;;11.80;;
12816;SDS011;6473;51.552;6.716;2022-12-18T08:05:32;19.73;;;12.23;;
12816;SDS011;6473;51.552;6.716;2022-12-18T08:08:03;23.40;;;13.40;;
12816;SDS011;6473;51.552;6.716;2022-12-18T08:10:33;21.17;;;12.30;;
12816;SDS011;6473;51.552;6.716;2022-12-18T08:13:01;20.87;;;13.03;;
12816;SDS011;6473;51.552;6.716;2022-12-18T08:24:53;22.47;;;13.43;;
12816;SDS011;6473;51.552;6.716;2022-12-18T08:27:23;20.47;;;12.50;;
12816;SDS011;6473;51.552;6.716;2022-12-18T08:29:53;18.57;;;11.70;;
12816;SDS011;6473;51.552;6.716;2022-12-18T08:32:34;20.67;;;12.30;;
12816;SDS011;6473;51.552;6.716;2022-12-18T08:35:16;22.37;;;11.90;;
12816;SDS011;6473;51.552;6.716;2022-12-18T09:56:53;17.63;;;12.97;;
12816;SDS011;6473;51.552;6.716;2022-12-18T10:01:56;20.07;;;13.00;;
12816;SDS011;6473;51.552;6.716;2022-12-18T10:04:24;21.80;;;14.47;;
12816;SDS011;6473;51.552;6.716;2022-12-18T10:06:57;21.97;;;14.47;;
12816;SDS011;6473;51.552;6.716;2022-12-18T10:39:15;21.73;;;14.03;;
12816;SDS011;6473;51.552;6.716;2022-12-18T10:41:45;21.67;;;14.83;;
12816;SDS011;6473;51.552;6.716;2022-12-18T10:47:32;22.77;;;15.00;;
12816;SDS011;6473;51.552;6.716;2022-12-18T10:50:00;21.63;;;14.97;;
12816;SDS011;6473;51.552;6.716;2022-12-18T10:52:27;23.53;;;15.20;;
12816;SDS011;6473;51.552;6.716;2022-12-18T10:54:57;22.13;;;15.80;;
12816;SDS011;6473;51.552;6.716;2022-12-18T10:57:30;21.03;;;15.83;;
12816;SDS011;6473;51.552;6.716;2022-12-18T11:02:48;22.27;;;15.10;;
12816;SDS011;6473;51.552;6.716;2022-12-18T11:05:23;21.87;;;14.77;;
12816;SDS011;6473;51.552;6.716;2022-12-18T11:07:55;20.30;;;14.37;;
12816;SDS011;6473;51.552;6.716;2022-12-18T11:10:25;22.50;;;14.93;;
12816;SDS011;6473;51.552;6.716;2022-12-18T11:13:07;22.60;;;15.70;;
12816;SDS011;6473;51.552;6.716;2022-12-18T11:15:36;24.67;;;16.43;;
12816;SDS011;6473;51.552;6.716;2022-12-18T11:18:13;24.10;;;15.60;;
12816;SDS011;6473;51.552;6.716;2022-12-18T11:20:42;26.80;;;16.30;;
12816;SDS011;6473;51.552;6.716;2022-12-18T11:23:17;23.57;;;15.67;;
12816;SDS011;6473;51.552;6.716;2022-12-18T11:25:53;21.67;;;15.17;;
12816;SDS011;6473;51.552;6.716;2022-12-18T11:28:33;21.23;;;14.43;;
12816;SDS011;6473;51.552;6.716;2022-12-18T11:31:09;24.43;;;15.70;;
12816;SDS011;6473;51.552;6.716;2022-12-18T11:33:56;22.30;;;14.83;;
12816;SDS011;6473;51.552;6.716;2022-12-18T11:36:28;20.17;;;13.90;;
12816;SDS011;6473;51.552;6.716;2022-12-18T11:39:03;16.83;;;12.13;;
12816;SDS011;6473;51.552;6.716;2022-12-18T11:41:41;15.10;;;9.57;;
12816;SDS011;6473;51.552;6.716;2022-12-18T11:44:31;10.70;;;8.40;;
12816;SDS011;6473;51.552;6.716;2022-12-18T11:47:09;11.80;;;7.87;;
12816;SDS011;6473;51.552;6.716;2022-12-18T11:49:41;9.63;;;7.50;;
12816;SDS011;6473;51.552;6.716;2022-12-18T11:52:09;8.10;;;6.37;;
12816;SDS011;6473;51.552;6.716;2022-12-18T11:54:42;9.77;;;6.53;;
12816;SDS011;6473;51.552;6.716;2022-12-18T11:57:13;9.60;;;6.80;;
12816;SDS011;6473;51.552;6.716;2022-12-18T11:59:51;10.53;;;6.83;;
12816;SDS011;6473;51.552;6.716;2022-12-18T12:02:31;8.43;;;5.53;;
12816;SDS011;6473;51.552;6.716;2022-12-18T12:05:14;6.87;;;5.30;;
12816;SDS011;6473;51.552;6.716;2022-12-18T12:08:01;9.77;;;4.93;;
12816;SDS011;6473;51.552;6.716;2022-12-18T12:10:39;7.30;;;4.80;;
12816;SDS011;6473;51.552;6.716;2022-12-18T12:13:23;6.47;;;5.00;;
12816;SDS011;6473;51.552;6.716;2022-12-18T12:16:06;7.47;;;4.60;;
12816;SDS011;6473;51.552;6.716;2022-12-18T12:18:44;5.63;;;4.53;;
12816;SDS011;6473;51.552;6.716;2022-12-18T12:21:23;5.30;;;4.40;;
12816;SDS011;6473;51.552;6.716;2022-12-18T12:24:04;7.53;;;4.93;;
12816;SDS011;6473;51.552;6.716;2022-12-18T12:26:47;8.20;;;5.47;;
12816;SDS011;6473;51.552;6.716;2022-12-18T12:29:36;6.13;;;4.93;;
12816;SDS011;6473;51.552;6.716;2022-12-18T12:36:40;8.47;;;4.63;;
12816;SDS011;6473;51.552;6.716;2022-12-18T12:39:17;8.40;;;5.27;;
12816;SDS011;6473;51.552;6.716;2022-12-18T12:41:52;9.50;;;5.53;;
12816;SDS011;6473;51.552;6.716;2022-12-18T12:44:39;9.27;;;5.87;;
12816;SDS011;6473;51.552;6.716;2022-12-18T12:47:12;8.23;;;5.27;;
12816;SDS011;6473;51.552;6.716;2022-12-18T12:49:42;7.37;;;5.43;;
12816;SDS011;6473;51.552;6.716;2022-12-18T12:52:13;7.33;;;5.37;;
12816;SDS011;6473;51.552;6.716;2022-12-18T12:54:43;8.13;;;5.67;;
12816;SDS011;6473;51.552;6.716;2022-12-18T12:57:12;8.93;;;5.37;;
12816;SDS011;6473;51.552;6.716;2022-12-18T12:59:51;8.77;;;5.70;;
12816;SDS011;6473;51.552;6.716;2022-12-18T13:02:28;11.17;;;6.53;;
12816;SDS011;6473;51.552;6.716;2022-12-18T13:05:01;8.13;;;5.33;;
12816;SDS011;6473;51.552;6.716;2022-12-18T13:07:34;9.10;;;6.70;;
12816;SDS011;6473;51.552;6.716;2022-12-18T13:10:14;8.17;;;5.27;;
12816;SDS011;6473;51.552;6.716;2022-12-18T13:12:54;8.33;;;6.00;;
12816;SDS011;6473;51.552;6.716;2022-12-18T13:15:24;8.90;;;6.80;;
12816;SDS011;6473;51.552;6.716;2022-12-18T13:18:03;7.43;;;5.57;;
12816;SDS011;6473;51.552;6.716;2022-12-18T13:20:36;9.43;;;6.13;;
12816;SDS011;6473;51.552;6.716;2022-12-18T13:23:18;7.83;;;5.70;;
12816;SDS011;6473;51.552;6.716;2022-12-18T13:25:52;8.53;;;5.57;;
12816;SDS011;6473;51.552;6.716;2022-12-18T13:28:20;6.17;;;5.37;;
12816;SDS011;6473;51.552;6.716;2022-12-18T13:30:54;9.87;;;6.47;;
12816;SDS011;6473;51.552;6.716;2022-12-18T13:36:26;8.03;;;6.10;;
12816;SDS011;6473;51.552;6.716;2022-12-18T13:39:15;7.40;;;5.47;;
12816;SDS011;6473;51.552;6.716;2022-12-18T13:41:49;6.80;;;4.93;;
12816;SDS011;6473;51.552;6.716;2022-12-18T13:44:23;8.30;;;5.70;;
12816;SDS011;6473;51.552;6.716;2022-12-18T13:46:53;9.13;;;6.00;;
12816;SDS011;6473;51.552;6.716;2022-12-18T13:49:21;9.03;;;5.97;;
12816;SDS011;6473;51.552;6.716;2022-12-18T13:51:51;8.00;;;5.43;;
12816;SDS011;6473;51.552;6.716;2022-12-18T13:54:21;8.80;;;6.37;;
12816;SDS011;6473;51.552;6.716;2022-12-18T13:56:53;9.87;;;6.50;;
12816;SDS011;6473;51.552;6.716;2022-12-18T13:59:21;8.40;;;6.07;;
12816;SDS011;6473;51.552;6.716;2022-12-18T14:01:51;8.67;;;6.57;;
12816;SDS011;6473;51.552;6.716;2022-12-18T14:04:22;8.63;;;6.20;;
12816;SDS011;6473;51.552;6.716;2022-12-18T14:06:52;9.10;;;6.50;;
12816;SDS011;6473;51.552;6.716;2022-12-18T14:09:23;9.17;;;6.50;;
12816;SDS011;6473;51.552;6.716;2022-12-18T14:11:52;9.90;;;6.40;;
12816;SDS011;6473;51.552;6.716;2022-12-18T14:14:43;9.97;;;6.40;;
12816;SDS011;6473;51.552;6.716;2022-12-18T14:17:13;10.60;;;6.33;;
12816;SDS011;6473;51.552;6.716;2022-12-18T14:19:42;11.07;;;6.90;;
12816;SDS011;6473;51.552;6.716;2022-12-18T14:22:15;10.17;;;6.20;;
12816;SDS011;6473;51.552;6.716;2022-12-18T14:24:45;9.60;;;6.63;;
12816;SDS011;6473;51.552;6.716;2022-12-18T14:27:19;8.50;;;6.00;;
12816;SDS011;6473;51.552;6.716;2022-12-18T14:29:48;9.47;;;6.97;;
12816;SDS011;6473;51.552;6.716;2022-12-18T14:32:18;10.30;;;7.07;;
12816;SDS011;6473;51.552;6.716;2022-12-18T14:34:46;10.10;;;7.00;;
12816;SDS011;6473;51.552;6.716;2022-12-18T14:37:15;11.53;;;7.27;;
12816;SDS011;6473;51.552;6.716;2022-12-18T14:39:53;10.97;;;7.23;;
12816;SDS011;6473;51.552;6.716;2022-12-18T14:42:23;10.80;;;7.17;;
12816;SDS011;6473;51.552;6.716;2022-12-18T14:47:55;10.80;;;7.47;;
12816;SDS011;6473;51.552;6.716;2022-12-18T14:50:22;12.87;;;7.20;;
12816;SDS011;6473;51.552;6.716;2022-12-18T14:52:49;12.90;;;7.47;;
12816;SDS011;6473;51.552;6.716;2022-12-18T14:55:17;10.07;;;7.53;;
12816;SDS011;6473;51.552;6.716;2022-12-18T14:57:45;11.37;;;7.77;;
12816;SDS011;6473;51.552;6.716;2022-12-18T15:00:17;8.93;;;6.50;;
12816;SDS011;6473;51.552;6.716;2022-12-18T15:02:45;9.97;;;7.00;;
12816;SDS011;6473;51.552;6.716;2022-12-18T15:05:18;10.10;;;7.43;;
12816;SDS011;6473;51.552;6.716;2022-12-18T15:07:51;9.40;;;6.30;;
12816;SDS011;6473;51.552;6.716;2022-12-18T15:10:19;10.77;;;7.40;;
12816;SDS011;6473;51.552;6.716;2022-12-18T15:12:47;15.03;;;7.63;;
12816;SDS011;6473;51.552;6.716;2022-12-18T15:18:15;12.37;;;7.30;;
12816;SDS011;6473;51.552;6.716;2022-12-18T15:20:46;12.40;;;7.10;;
12816;SDS011;6473;51.552;6.716;2022-12-18T15:23:19;11.80;;;7.80;;
12816;SDS011;6473;51.552;6.716;2022-12-18T15:25:48;11.87;;;7.77;;
12816;SDS011;6473;51.552;6.716;2022-12-18T15:28:24;12.37;;;6.97;;
12816;SDS011;6473;51.552;6.716;2022-12-18T15:30:59;13.43;;;8.37;;
12816;SDS011;6473;51.552;6.716;2022-12-18T15:33:30;13.03;;;7.90;;
12816;SDS011;6473;51.552;6.716;2022-12-18T15:36:01;12.03;;;8.40;;
12816;SDS011;6473;51.552;6.716;2022-12-18T15:38:30;10.80;;;7.17;;
12816;SDS011;6473;51.552;6.716;2022-12-18T15:40:57;11.40;;;7.93;;
12816;SDS011;6473;51.552;6.716;2022-12-18T15:43:24;11.37;;;8.10;;
12816;SDS011;6473;51.552;6.716;2022-12-18T15:46:01;9.40;;;7.30;;
12816;SDS011;6473;51.552;6.716;2022-12-18T15:48:29;11.60;;;7.50;;
12816;SDS011;6473;51.552;6.716;2022-12-18T15:50:56;10.77;;;8.23;;
12816;SDS011;6473;51.552;6.716;2022-12-18T15:53:26;15.67;;;9.17;;
12816;SDS011;6473;51.552;6.716;2022-12-18T15:55:57;13.27;;;9.30;;
12816;SDS011;6473;51.552;6.716;2022-12-18T15:58:41;15.00;;;8.67;;
12816;SDS011;6473;51.552;6.716;2022-12-18T16:01:09;12.50;;;8.33;;
12816;SDS011;6473;51.552;6.716;2022-12-18T16:03:36;13.27;;;8.57;;
12816;SDS011;6473;51.552;6.716;2022-12-18T16:06:04;14.07;;;8.63;;
12816;SDS011;6473;51.552;6.716;2022-12-18T16:08:32;22.67;;;11.33;;
12816;SDS011;6473;51.552;6.716;2022-12-18T16:11:00;15.80;;;9.73;;
12816;SDS011;6473;51.552;6.716;2022-12-18T16:13:27;18.13;;;10.90;;
12816;SDS011;6473;51.552;6.716;2022-12-18T16:15:54;16.50;;;10.27;;
12816;SDS011;6473;51.552;6.716;2022-12-18T16:18:21;17.50;;;10.20;;
12816;SDS011;6473;51.552;6.716;2022-12-18T16:20:49;17.43;;;9.83;;
12816;SDS011;6473;51.552;6.716;2022-12-18T16:23:16;15.87;;;10.53;;
12816;SDS011;6473;51.552;6.716;2022-12-18T16:25:44;19.07;;;11.53;;
12816;SDS011;6473;51.552;6.716;2022-12-18T16:28:12;19.50;;;10.93;;
12816;SDS011;6473;51.552;6.716;2022-12-18T16:30:39;18.20;;;10.40;;
12816;SDS011;6473;51.552;6.716;2022-12-18T16:33:07;18.03;;;10.60;;
12816;SDS011;6473;51.552;6.716;2022-12-18T16:35:39;16.73;;;10.60;;
12816;SDS011;6473;51.552;6.716;2022-12-18T16:38:08;21.07;;;10.87;;
12816;SDS011;6473;51.552;6.716;2022-12-18T16:40:35;20.03;;;11.73;;
12816;SDS011;6473;51.552;6.716;2022-12-18T16:43:36;17.90;;;10.63;;
12816;SDS011;6473;51.552;6.716;2022-12-18T16:53:13;21.00;;;11.97;;
12816;SDS011;6473;51.552;6.716;2022-12-18T16:55:40;17.97;;;11.23;;
12816;SDS011;6473;51.552;6.716;2022-12-18T16:58:07;16.60;;;10.23;;
12816;SDS011;6473;51.552;6.716;2022-12-18T17:00:37;17.17;;;11.13;;
12816;SDS011;6473;51.552;6.716;2022-12-18T17:03:04;16.53;;;10.37;;
12816;SDS011;6473;51.552;6.716;2022-12-18T17:08:19;19.63;;;11.07;;
12816;SDS011;6473;51.552;6.716;2022-12-18T17:10:46;16.53;;;10.03;;
12816;SDS011;6473;51.552;6.716;2022-12-18T17:13:13;22.43;;;10.50;;
12816;SDS011;6473;51.552;6.716;2022-12-18T17:15:42;17.40;;;10.70;;
12816;SDS011;6473;51.552;6.716;2022-12-18T17:18:09;17.40;;;11.37;;
12816;SDS011;6473;51.552;6.716;2022-12-18T17:20:37;20.80;;;12.33;;
12816;SDS011;6473;51.552;6.716;2022-12-18T17:23:04;23.93;;;11.80;;
12816;SDS011;6473;51.552;6.716;2022-12-18T17:25:47;19.33;;;11.80;;
12816;SDS011;6473;51.552;6.716;2022-12-18T17:28:14;19.27;;;11.27;;
12816;SDS011;6473;51.552;6.716;2022-12-18T17:37:40;21.57;;;12.37;;
12816;SDS011;6473;51.552;6.716;2022-12-18T17:40:09;21.37;;;12.17;;
12816;SDS011;6473;51.552;6.716;2022-12-18T17:45:24;20.90;;;12.67;;
12816;SDS011;6473;51.552;6.716;2022-12-18T17:47:51;21.30;;;12.77;;